TRA041 EHRD-EHRD
Flight info
| Callsign | TRA041 |
|---|---|
| Flight time | 0h 12m |
| Altitude | 3000 |
| Route | RTM STAY01/0045 RTM |
| Aircraft | B738/M-SDE2E3FGHIRWXY/LB1 |
Departure
| Time | 2026-05-05 14:42 |
|---|---|
| Airport | Rotterdam The Hague Airport (EHRD) |
Arrival
| Time | 2026-05-05 14:54 |
|---|---|
| Airport | Rotterdam The Hague Airport (EHRD) |
| Time | Latitude | Longitude | Altitude | Speed | Heading |
|---|---|---|---|---|---|
| 2026-05-05 14:26 | 51.95164 | 4.43349 | -6 ft | 0 kts | 327° |
| 2026-05-05 14:36 | 51.95172 | 4.43341 | -6 ft | 6 kts | 327° |
| 2026-05-05 14:36 | 51.95188 | 4.43265 | -6 ft | 13 kts | 246° |
| 2026-05-05 14:36 | 51.95135 | 4.43120 | -6 ft | 15 kts | 245° |
| 2026-05-05 14:37 | 51.95114 | 4.43044 | -6 ft | 0 kts | 248° |
| 2026-05-05 14:40 | 51.95109 | 4.43014 | -6 ft | 9 kts | 258° |
| 2026-05-05 14:40 | 51.95153 | 4.42898 | -6 ft | 17 kts | 324° |
| 2026-05-05 14:41 | 51.95241 | 4.42908 | -6 ft | 15 kts | 53° |
| 2026-05-05 14:41 | 51.95296 | 4.43043 | -6 ft | 14 kts | 58° |
| 2026-05-05 14:41 | 51.95348 | 4.43179 | -6 ft | 19 kts | 57° |
| 2026-05-05 14:41 | 51.95575 | 4.43739 | -6 ft | 99 kts | 57° |
| 2026-05-05 14:42 | 51.96070 | 4.44945 | 137 ft | 150 kts | 56° |
| 2026-05-05 14:42 | 51.96688 | 4.46480 | 845 ft | 167 kts | 60° |
| 2026-05-05 14:42 | 51.96911 | 4.48357 | 1413 ft | 177 kts | 96° |
| 2026-05-05 14:42 | 51.96283 | 4.50154 | 1942 ft | 195 kts | 131° |
| 2026-05-05 14:43 | 51.95274 | 4.51733 | 1964 ft | 205 kts | 132° |
| 2026-05-05 14:43 | 51.94252 | 4.53356 | 1979 ft | 206 kts | 132° |
| 2026-05-05 14:43 | 51.93231 | 4.54982 | 1998 ft | 205 kts | 133° |
| 2026-05-05 14:43 | 51.92028 | 4.56193 | 1984 ft | 206 kts | 166° |
| 2026-05-05 14:44 | 51.90621 | 4.56063 | 1995 ft | 206 kts | 198° |
| 2026-05-05 14:44 | 51.89269 | 4.55248 | 2024 ft | 212 kts | 205° |
| 2026-05-05 14:44 | 51.88101 | 4.53785 | 2000 ft | 214 kts | 232° |
| 2026-05-05 14:44 | 51.87178 | 4.51894 | 2000 ft | 215 kts | 232° |
| 2026-05-05 14:45 | 51.86238 | 4.50013 | 2006 ft | 215 kts | 232° |
| 2026-05-05 14:45 | 51.85277 | 4.48096 | 2038 ft | 230 kts | 232° |
| 2026-05-05 14:45 | 51.84201 | 4.45946 | 2059 ft | 262 kts | 232° |
| 2026-05-05 14:45 | 51.83019 | 4.43576 | 2023 ft | 274 kts | 232° |
| 2026-05-05 14:46 | 51.81838 | 4.41189 | 2001 ft | 265 kts | 232° |
| 2026-05-05 14:46 | 51.80707 | 4.38895 | 1984 ft | 256 kts | 232° |
| 2026-05-05 14:46 | 51.79601 | 4.36669 | 1978 ft | 252 kts | 232° |
| 2026-05-05 14:46 | 51.78499 | 4.34462 | 1990 ft | 254 kts | 232° |
| 2026-05-05 14:47 | 51.77382 | 4.32224 | 1991 ft | 256 kts | 232° |
| 2026-05-05 14:47 | 51.76268 | 4.29987 | 1994 ft | 252 kts | 233° |
| 2026-05-05 14:47 | 51.75473 | 4.27584 | 1965 ft | 238 kts | 261° |
| 2026-05-05 14:47 | 51.75557 | 4.25072 | 1985 ft | 216 kts | 295° |
| 2026-05-05 14:48 | 51.76413 | 4.23277 | 2002 ft | 195 kts | 328° |
| 2026-05-05 14:48 | 51.77521 | 4.22148 | 1983 ft | 188 kts | 332° |
| 2026-05-05 14:48 | 51.78618 | 4.21091 | 1968 ft | 180 kts | 333° |
| 2026-05-05 14:48 | 51.79670 | 4.20057 | 1989 ft | 174 kts | 333° |
| 2026-05-05 14:49 | 51.80801 | 4.19580 | 1997 ft | 167 kts | 11° |
| 2026-05-05 14:49 | 51.81932 | 4.20037 | 2004 ft | 172 kts | 17° |
| 2026-05-05 14:49 | 51.83105 | 4.20577 | 2005 ft | 177 kts | 17° |
| 2026-05-05 14:49 | 51.84289 | 4.21130 | 2002 ft | 176 kts | 17° |
| 2026-05-05 14:50 | 51.85449 | 4.21679 | 1984 ft | 172 kts | 17° |
| 2026-05-05 14:50 | 51.86588 | 4.22215 | 1987 ft | 168 kts | 17° |
| 2026-05-05 14:50 | 51.87709 | 4.22745 | 1984 ft | 168 kts | 17° |
| 2026-05-05 14:50 | 51.88749 | 4.23622 | 1986 ft | 175 kts | 48° |
| 2026-05-05 14:51 | 51.89202 | 4.25460 | 2007 ft | 186 kts | 88° |
| 2026-05-05 14:51 | 51.89025 | 4.27520 | 2006 ft | 185 kts | 89° |
| 2026-05-05 14:51 | 51.89429 | 4.29322 | 2007 ft | 169 kts | 43° |
| 2026-05-05 14:51 | 51.90272 | 4.30744 | 1827 ft | 177 kts | 52° |
| 2026-05-05 14:52 | 51.90992 | 4.32322 | 1626 ft | 177 kts | 52° |
| 2026-05-05 14:52 | 51.91684 | 4.33982 | 1367 ft | 176 kts | 55° |
| 2026-05-05 14:52 | 51.92340 | 4.35634 | 1144 ft | 173 kts | 55° |
| 2026-05-05 14:52 | 51.92975 | 4.37227 | 904 ft | 164 kts | 56° |
| 2026-05-05 14:53 | 51.93560 | 4.38692 | 678 ft | 147 kts | 56° |
| 2026-05-05 14:53 | 51.94087 | 4.40015 | 518 ft | 132 kts | 57° |
| 2026-05-05 14:53 | 51.94578 | 4.41241 | 301 ft | 127 kts | 55° |
| 2026-05-05 14:53 | 51.95063 | 4.42457 | 133 ft | 128 kts | 56° |
| 2026-05-05 14:54 | 51.95548 | 4.43675 | 32 ft | 125 kts | 56° |
| 2026-05-05 14:54 | 51.95987 | 4.44759 | -6 ft | 85 kts | 57° |
| 2026-05-05 14:54 | 51.96102 | 4.45051 | -6 ft | 17 kts | 57° |
| 2026-05-05 14:54 | 51.96157 | 4.45218 | -6 ft | 17 kts | 81° |
| 2026-05-05 14:55 | 51.96115 | 4.45382 | -6 ft | 16 kts | 136° |
| 2026-05-05 14:55 | 51.96023 | 4.45356 | -6 ft | 15 kts | 235° |
| 2026-05-05 14:55 | 51.95968 | 4.45213 | -6 ft | 15 kts | 237° |
| 2026-05-05 14:55 | 51.95913 | 4.45077 | -6 ft | 14 kts | 237° |
| 2026-05-05 14:56 | 51.95861 | 4.44947 | -6 ft | 13 kts | 237° |
| 2026-05-05 14:56 | 51.95828 | 4.44864 | -6 ft | 13 kts | 237° |
| 2026-05-05 14:56 | 51.95761 | 4.44697 | -6 ft | 16 kts | 237° |
| 2026-05-05 14:56 | 51.95687 | 4.44513 | -6 ft | 21 kts | 237° |
| 2026-05-05 14:57 | 51.95635 | 4.44382 | -6 ft | 21 kts | 237° |
| 2026-05-05 14:57 | 51.95557 | 4.44189 | -6 ft | 20 kts | 237° |
| 2026-05-05 14:57 | 51.95483 | 4.44003 | -6 ft | 19 kts | 237° |
| 2026-05-05 14:57 | 51.95417 | 4.43839 | -6 ft | 14 kts | 237° |
| 2026-05-05 14:58 | 51.95368 | 4.43716 | -6 ft | 12 kts | 237° |
| 2026-05-05 14:58 | 51.95326 | 4.43611 | -6 ft | 12 kts | 237° |
| 2026-05-05 14:58 | 51.95266 | 4.43513 | -6 ft | 13 kts | 191° |
| 2026-05-05 14:58 | 51.95189 | 4.43547 | -7 ft | 6 kts | 181° |
| 2026-05-05 14:59 | 51.95162 | 4.43499 | -7 ft | 6 kts | 238° |
| 2026-05-05 14:59 | 51.95156 | 4.43443 | -6 ft | 2 kts | 297° |
| 2026-05-05 14:59 | 51.95167 | 4.43430 | -6 ft | 2 kts | 321° |
| 2026-05-05 14:59 | 51.95177 | 4.43417 | -6 ft | 2 kts | 323° |
| 2026-05-05 15:00 | 51.95185 | 4.43409 | -6 ft | 1 kts | 328° |
| 2026-05-05 15:00 | 51.95187 | 4.43407 | -6 ft | 0 kts | 328° |